Bowstring, MN (56631)

4:45 AM CST on December 22, 2014 (GMT -0600)
Ye old Homestead | Change Station
CLOSE
Current Station
Personal Weather Station
Location: Deer River, MN
Elevation: 1339 ft
Nearby Weather Stations

Elev 1339 ft 47.37 °N, 93.83 °W | Updated 9 minutes ago

Overcast
Overcast
32.9 °F
Feels Like 30 °F
N
3.2
Wind Variable Wind from SSE

Today
High -- | Low -- °F
--% Chance of Precip.
Yesterday
High -- | Low -- °F
Precip. -- in
8:00 AM 4:26 PM
New Moon, 0% visible
Pressure 29.63 in
Visibility 4.0 miles
Clouds Overcast 400 ft
Windchill 30 °F
Dew Point 32 °F
Humidity 98%
Rainfall 0.00 in
Snow Depth Not available.
UV 0 out of 12
Pollen .10 out of 12
Air Quality Not available.
Flu Activity Not available.
METAR KFOZ 221033Z AUTO 15003KT 4SM BR OVC004 01/01 A2963 RMK AO2

More Conditions Fewer Conditions

Pressure 29.63 in
Visibility 4.0 miles
Clouds Overcast 400 ft
Windchill 30 °F
Dew Point 32 °F
Humidity 98%
Rainfall 0.00 in
Snow Depth Not available.
UV 0 out of 12
Pollen .10 out of 12
Air Quality Not available.
Flu Activity Not available.
METAR KFOZ 221033Z AUTO 15003KT 4SM BR OVC004 01/01 A2963 RMK AO2

More Conditions Fewer Conditions

10-Day Weather Forecast

Almanac

Astronomy

Dec. 22, 2014 Rise Set
Actual Time
Civil Twilight
Nautical Twilight
Astronomical Twilight
Moon
Length of Visible Light
Length of Day
Tomorrow will be .
, % of the Moon is Illuminated

Today's Extremes

State Highs State Lows

Community

WunderPhotos

Upload Photos

1,779,583 photos uploaded!

WunderBlogs® & News

Nearby

Air Quality

  Air Quality AQ Index Pollutant
Not available.

Snow Depth

Station Depth Elevation

Earthquake Activity

City Distance Mag. Time & Date
Minimum magnitude displayed is 2.5.

Coastal Water Temperatures

Place Temperature

Nearby Weather Stations